Time;durP1;ratioP1;P1;durP2;ratioP2;P2;SDS_P1;SDS_P2;PMS_P1;PMS_P2;Temp;Humidity;BMP_temperature;BMP_pressure;BME280_temperature;BME280_humidity;BME280_pressure;Samples;Min_cycle;Max_cycle;Signal;HPM_P1;HPM_P2
2022/04/17 00:00:21;;;;;;;5.95;3.72;;;4.70;60.60;;;;;;5030943;28;20087;-66
2022/04/17 00:02:46;;;;;;;5.50;3.78;;;4.70;60.90;;;;;;5045131;28;20097;-66
2022/04/17 00:05:12;;;;;;;6.47;3.40;;;4.70;61.00;;;;;;5032534;28;20044;-66
2022/04/17 00:07:39;;;;;;;5.23;2.97;;;4.60;61.00;;;;;;5035652;28;20547;-66
2022/04/17 00:10:05;;;;;;;6.45;3.50;;;4.60;61.30;;;;;;5037206;28;20882;-66
2022/04/17 00:12:31;;;;;;;5.40;3.70;;;4.60;61.40;;;;;;5045460;28;20056;-66
2022/04/17 00:15:00;;;;;;;4.97;3.70;;;4.50;61.40;;;;;;5035910;28;20536;-66
2022/04/17 00:17:26;;;;;;;6.57;3.45;;;4.50;61.60;;;;;;5042556;28;20044;-66
2022/04/17 00:19:51;;;;;;;5.90;3.93;;;4.50;61.60;;;;;;5039113;28;20052;-66
2022/04/17 00:22:17;;;;;;;6.67;3.70;;;4.50;61.60;;;;;;5044168;28;20044;-66
2022/04/17 00:24:43;;;;;;;6.67;3.43;;;4.50;61.50;;;;;;5046157;28;20043;-66
2022/04/17 00:27:09;;;;;;;8.30;4.37;;;4.50;61.50;;;;;;5022411;28;20037;-66
2022/04/17 00:29:36;;;;;;;6.10;3.90;;;4.50;61.60;;;;;;5038669;28;20087;-66
2022/04/17 00:32:01;;;;;;;10.65;4.63;;;4.50;61.70;;;;;;5040189;28;20112;-66
2022/04/17 00:34:29;;;;;;;6.50;3.80;;;4.40;61.60;;;;;;5048378;28;20123;-66
2022/04/17 00:36:59;;;;;;;6.85;3.85;;;4.40;61.90;;;;;;5013095;28;20470;-66
2022/04/17 00:39:25;;;;;;;4.55;3.35;;;4.40;62.00;;;;;;5046689;28;20600;-66
2022/04/17 00:41:51;;;;;;;5.50;3.75;;;4.40;62.30;;;;;;5032607;28;20048;-66
2022/04/17 00:44:17;;;;;;;6.07;3.47;;;4.40;62.20;;;;;;5005617;28;20317;-66
2022/04/17 00:46:43;;;;;;;7.20;4.00;;;4.40;62.30;;;;;;5032826;28;20479;-66
2022/04/17 00:49:09;;;;;;;6.13;3.50;;;4.30;62.40;;;;;;5020635;28;20040;-66
2022/04/17 00:51:36;;;;;;;5.00;3.70;;;4.30;62.60;;;;;;5021928;28;20493;-66
2022/04/17 00:54:04;;;;;;;4.97;3.60;;;4.30;62.60;;;;;;5032201;28;20369;-66
2022/04/17 00:56:34;;;;;;;5.55;3.60;;;4.30;62.80;;;;;;5049007;28;20055;-66
2022/04/17 00:59:03;;;;;;;5.78;4.03;;;4.20;62.90;;;;;;5030548;28;20040;-66
2022/04/17 01:01:36;;;;;;;7.30;3.67;;;4.20;62.80;;;;;;5048917;28;20052;-66
2022/04/17 01:04:02;;;;;;;6.20;3.67;;;4.10;63.10;;;;;;5047366;28;20404;-66
2022/04/17 01:06:28;;;;;;;5.78;4.30;;;4.10;63.20;;;;;;5021706;28;20099;-66
2022/04/17 01:08:55;;;;;;;6.15;3.90;;;4.10;63.10;;;;;;5042667;28;20127;-66
2022/04/17 01:11:21;;;;;;;9.70;4.18;;;4.10;63.20;;;;;;5042141;28;20049;-66
2022/04/17 01:13:47;;;;;;;6.72;4.00;;;4.20;63.50;;;;;;5043563;28;20059;-66
2022/04/17 01:16:16;;;;;;;8.05;4.57;;;4.20;63.30;;;;;;5046336;28;20129;-66
2022/04/17 01:19:11;;;;;;;6.10;4.00;;;4.20;63.20;;;;;;5044441;28;20080;-66
2022/04/17 01:21:37;;;;;;;7.40;4.25;;;4.30;62.80;;;;;;5048108;28;20079;-66
2022/04/17 01:26:57;;;;;;;8.35;4.22;;;4.40;62.40;;;;;;5047841;28;20044;-66
2022/04/17 01:29:26;;;;;;;7.45;4.07;;;4.30;62.50;;;;;;5047291;28;20222;-66
2022/04/17 01:31:53;;;;;;;5.85;4.22;;;4.30;62.40;;;;;;5048284;28;20093;-66
2022/04/17 01:34:21;;;;;;;4.88;3.78;;;4.40;62.40;;;;;;5047808;28;20577;-66
2022/04/17 01:36:49;;;;;;;7.63;4.10;;;4.40;62.50;;;;;;5030777;28;20128;-66
2022/04/17 01:39:14;;;;;;;7.35;4.50;;;4.40;63.00;;;;;;5029219;28;20127;-66
2022/04/17 01:41:41;;;;;;;6.00;4.23;;;4.30;62.60;;;;;;5046563;28;20570;-66
2022/04/17 01:44:07;;;;;;;6.72;4.25;;;4.30;63.00;;;;;;5045322;28;20458;-66
2022/04/17 01:46:33;;;;;;;6.55;4.43;;;4.20;62.80;;;;;;5028198;28;20043;-66
2022/04/17 01:48:59;;;;;;;10.63;4.68;;;4.20;63.20;;;;;;5012083;28;20048;-66
2022/04/17 01:51:26;;;;;;;6.88;4.72;;;4.20;63.30;;;;;;5027292;28;20045;-66
2022/04/17 01:53:51;;;;;;;7.03;4.53;;;4.20;63.10;;;;;;5009741;28;20045;-66
2022/04/17 01:56:17;;;;;;;6.43;4.90;;;4.10;63.20;;;;;;5047707;28;20040;-66
2022/04/17 01:58:43;;;;;;;7.50;4.53;;;4.10;63.40;;;;;;5038921;28;20143;-66
2022/04/17 02:01:08;;;;;;;6.90;4.47;;;4.10;63.50;;;;;;5048270;28;20086;-66
2022/04/17 02:03:34;;;;;;;6.17;4.50;;;4.00;63.30;;;;;;5047726;28;20041;-66
2022/04/17 02:06:00;;;;;;;7.00;4.70;;;4.00;63.60;;;;;;5030806;28;20128;-66
2022/04/17 02:08:29;;;;;;;8.30;4.97;;;4.00;63.60;;;;;;5046686;28;20033;-66
2022/04/17 02:10:56;;;;;;;7.70;4.85;;;4.00;63.70;;;;;;5048055;28;20040;-66
2022/04/17 02:13:23;;;;;;;7.65;5.10;;;4.00;63.60;;;;;;5034175;28;20417;-66
2022/04/17 02:15:49;;;;;;;7.72;5.43;;;3.90;63.50;;;;;;5047979;28;20102;-66
2022/04/17 02:18:16;;;;;;;8.23;5.22;;;3.90;63.50;;;;;;5040281;28;20071;-66
2022/04/17 02:20:42;;;;;;;8.27;4.78;;;3.80;63.80;;;;;;5031555;28;20059;-66
2022/04/17 02:23:08;;;;;;;8.95;5.43;;;3.80;63.70;;;;;;5045017;28;20053;-66
2022/04/17 02:25:34;;;;;;;6.50;5.10;;;3.80;63.90;;;;;;5021247;28;20489;-66
2022/04/17 02:27:59;;;;;;;8.43;5.38;;;3.70;63.80;;;;;;5030075;28;20080;-66
2022/04/17 02:30:25;;;;;;;7.13;4.80;;;3.70;64.00;;;;;;5048251;28;20149;-66
2022/04/17 02:32:51;;;;;;;8.00;5.07;;;3.60;64.00;;;;;;5046563;28;20049;-66
2022/04/17 02:35:16;;;;;;;9.50;5.10;;;3.60;64.10;;;;;;5031171;28;20044;-66
2022/04/17 02:37:43;;;;;;;7.37;5.20;;;3.60;64.00;;;;;;5014003;28;20528;-66
2022/04/17 02:40:09;;;;;;;8.13;5.53;;;3.60;63.90;;;;;;5047944;28;20050;-66
2022/04/17 02:42:34;;;;;;;7.63;5.00;;;3.50;63.80;;;;;;5045035;28;20049;-66
2022/04/17 02:45:00;;;;;;;9.90;5.23;;;3.50;63.90;;;;;;5030415;28;20489;-66
2022/04/17 02:47:44;;;;;;;7.30;5.17;;;3.50;64.20;;;;;;5030774;28;20121;-66
2022/04/17 02:50:15;;;;;;;9.10;5.55;;;3.50;64.20;;;;;;5016420;28;20041;-66
2022/04/17 02:52:42;;;;;;;8.35;5.32;;;3.40;64.10;;;;;;5047309;28;20068;-66
2022/04/17 02:55:08;;;;;;;8.45;5.30;;;3.40;64.20;;;;;;5050794;28;20067;-66
2022/04/17 02:57:34;;;;;;;9.30;5.88;;;3.30;64.10;;;;;;5034310;28;20036;-66
2022/04/17 03:00:00;;;;;;;7.63;5.68;;;3.30;64.30;;;;;;5031326;28;20041;-66
2022/04/17 03:07:57;;;;;;;10.50;5.82;;;3.20;64.20;;;;;;5050392;28;20040;-66
2022/04/17 03:10:23;;;;;;;9.95;5.78;;;3.20;64.60;;;;;;5051111;28;20044;-66
2022/04/17 03:12:49;;;;;;;8.32;5.43;;;3.10;64.40;;;;;;5034437;28;20723;-66
2022/04/17 03:15:14;;;;;;;9.90;6.50;;;3.10;64.60;;;;;;5031507;28;20048;-66
2022/04/17 03:17:40;;;;;;;12.23;5.83;;;3.10;64.70;;;;;;5023545;28;20106;-66
2022/04/17 03:20:07;;;;;;;8.13;5.80;;;3.00;64.70;;;;;;5048832;28;20564;-66
2022/04/17 03:22:33;;;;;;;11.25;6.07;;;3.00;64.80;;;;;;5047955;28;20083;-66
2022/04/17 03:25:04;;;;;;;10.00;6.10;;;3.00;64.90;;;;;;5047910;28;20096;-66
2022/04/17 03:27:30;;;;;;;9.10;5.70;;;3.00;64.90;;;;;;5051040;28;20287;-66
2022/04/17 03:29:56;;;;;;;10.10;6.40;;;3.00;65.00;;;;;;5049398;28;20037;-66
2022/04/17 03:32:22;;;;;;;10.03;6.20;;;2.90;65.10;;;;;;5049335;28;20127;-66
2022/04/17 03:34:48;;;;;;;11.87;7.47;;;2.90;65.10;;;;;;5050170;28;20048;-66
2022/04/17 03:37:16;;;;;;;9.70;6.63;;;2.90;65.60;;;;;;4998564;28;20504;-66
2022/04/17 03:39:44;;;;;;;9.65;6.20;;;2.90;65.30;;;;;;5049053;28;20063;-66
2022/04/17 03:42:10;;;;;;;10.93;7.38;;;2.90;65.50;;;;;;5030770;28;20072;-66
2022/04/17 03:44:36;;;;;;;11.07;6.50;;;2.90;65.50;;;;;;5049438;28;20033;-66
2022/04/17 03:47:02;;;;;;;10.60;6.13;;;2.90;65.60;;;;;;5034141;28;20385;-66
2022/04/17 03:49:29;;;;;;;10.40;6.33;;;2.90;65.70;;;;;;5045897;28;20041;-66
2022/04/17 03:51:55;;;;;;;9.95;6.43;;;2.80;65.80;;;;;;5026770;28;20286;-66
2022/04/17 03:54:21;;;;;;;9.07;6.20;;;2.80;65.70;;;;;;5049597;28;20115;-66
2022/04/17 03:56:47;;;;;;;10.87;7.60;;;2.80;66.30;;;;;;5030492;28;20283;-66
2022/04/17 03:59:14;;;;;;;8.75;6.18;;;2.80;65.80;;;;;;5019996;28;20068;-66
2022/04/17 04:01:40;;;;;;;9.82;6.55;;;2.80;65.80;;;;;;5030862;28;20559;-66
2022/04/17 04:04:08;;;;;;;9.90;6.53;;;2.70;65.80;;;;;;5049201;28;20048;-66
2022/04/17 04:06:34;;;;;;;9.23;6.80;;;2.70;66.00;;;;;;5047381;28;20048;-66
2022/04/17 04:09:00;;;;;;;11.65;7.43;;;2.70;66.00;;;;;;5025157;28;20454;-66
2022/04/17 04:11:26;;;;;;;9.40;6.95;;;2.70;66.10;;;;;;5020952;28;20083;-66
2022/04/17 04:13:54;;;;;;;10.43;6.73;;;2.60;66.60;;;;;;5036865;28;20097;-66
2022/04/17 04:16:20;;;;;;;8.68;6.95;;;2.60;66.70;;;;;;5050308;28;20385;-66
2022/04/17 04:18:46;;;;;;;11.88;7.30;;;2.60;66.30;;;;;;5032974;28;20071;-66
2022/04/17 04:21:11;;;;;;;11.07;7.20;;;2.50;66.40;;;;;;5023403;28;20110;-66
2022/04/17 04:23:38;;;;;;;11.17;6.90;;;2.50;66.40;;;;;;5048890;28;20408;-66
2022/04/17 04:26:04;;;;;;;11.40;7.38;;;2.50;66.70;;;;;;5059270;28;20111;-66
2022/04/17 04:28:34;;;;;;;10.13;7.05;;;2.50;66.50;;;;;;5019634;28;20063;-66
2022/04/17 04:31:09;;;;;;;13.80;7.82;;;2.50;66.70;;;;;;5048931;28;20032;-66
2022/04/17 04:33:36;;;;;;;9.70;7.53;;;2.50;66.80;;;;;;5021236;28;20119;-66
2022/04/17 04:36:07;;;;;;;10.48;6.72;;;2.40;66.80;;;;;;5046716;28;20119;-66
2022/04/17 04:38:33;;;;;;;12.43;7.20;;;2.40;66.80;;;;;;5033923;28;20051;-66
2022/04/17 04:40:59;;;;;;;12.75;6.93;;;2.40;66.90;;;;;;5030342;28;20114;-66
2022/04/17 04:43:26;;;;;;;12.15;7.68;;;2.40;67.00;;;;;;5005242;28;20044;-67
2022/04/17 04:46:06;;;;;;;10.25;7.15;;;2.40;67.10;;;;;;5029616;28;20048;-67
2022/04/17 04:51:26;;;;;;;12.45;6.97;;;2.40;67.20;;;;;;5029888;28;20134;-67
2022/04/17 04:53:53;;;;;;;10.90;7.25;;;2.30;67.30;;;;;;5044699;28;20036;-67
2022/04/17 04:56:19;;;;;;;13.80;7.30;;;2.30;67.40;;;;;;5029175;28;20383;-67
2022/04/17 04:58:45;;;;;;;10.18;7.10;;;2.40;67.40;;;;;;5043215;28;20457;-67
2022/04/17 05:01:12;;;;;;;11.93;8.07;;;2.30;67.60;;;;;;5028143;28;20048;-67
2022/04/17 05:03:38;;;;;;;10.45;6.57;;;2.40;67.60;;;;;;5059874;28;20101;-67
2022/04/17 05:06:04;;;;;;;11.73;7.85;;;2.40;67.60;;;;;;5024409;28;20059;-67
2022/04/17 05:08:30;;;;;;;11.10;8.43;;;2.40;67.60;;;;;;5046343;28;20505;-67
2022/04/17 05:10:57;;;;;;;11.60;8.15;;;2.50;67.60;;;;;;5047787;28;20036;-67
2022/04/17 05:13:22;;;;;;;11.23;7.10;;;2.50;67.70;;;;;;5025428;28;20056;-67
2022/04/17 05:15:48;;;;;;;12.23;7.13;;;2.50;67.60;;;;;;5025569;28;20059;-67
2022/04/17 05:18:14;;;;;;;10.93;7.43;;;2.60;67.60;;;;;;5048207;28;20055;-67
2022/04/17 05:20:40;;;;;;;14.60;7.87;;;2.60;67.80;;;;;;5040045;28;20116;-67
2022/04/17 05:23:25;;;;;;;12.32;7.68;;;2.70;67.60;;;;;;5027033;28;20040;-67
2022/04/17 05:25:54;;;;;;;13.18;8.00;;;2.70;67.60;;;;;;5047751;28;20599;-67
2022/04/17 05:28:21;;;;;;;12.82;7.80;;;2.70;68.00;;;;;;5047446;28;20559;-67
2022/04/17 05:30:48;;;;;;;11.25;8.00;;;2.80;67.90;;;;;;5048798;28;20040;-67
2022/04/17 05:33:16;;;;;;;13.05;7.85;;;2.90;67.50;;;;;;5047434;28;20119;-67
2022/04/17 05:35:42;;;;;;;15.93;8.38;;;2.90;67.50;;;;;;5029983;28;20056;-67
2022/04/17 05:38:08;;;;;;;13.43;8.20;;;3.00;67.40;;;;;;5030081;28;20044;-67
2022/04/17 05:40:35;;;;;;;12.40;7.73;;;3.00;67.40;;;;;;5032046;28;20051;-67
2022/04/17 05:43:02;;;;;;;12.13;7.50;;;3.10;67.40;;;;;;5048071;28;20155;-67
2022/04/17 05:45:28;;;;;;;11.85;7.45;;;3.20;67.40;;;;;;5046387;28;20083;-67
2022/04/17 05:47:56;;;;;;;12.57;7.60;;;3.20;67.50;;;;;;5030998;28;20104;-67
2022/04/17 05:50:22;;;;;;;11.00;7.45;;;3.30;67.50;;;;;;5045929;28;20044;-67
2022/04/17 05:52:47;;;;;;;11.50;7.70;;;3.40;67.70;;;;;;5030656;28;20469;-67
2022/04/17 05:55:14;;;;;;;11.77;7.50;;;3.40;67.60;;;;;;5011786;28;20124;-67
2022/04/17 05:57:41;;;;;;;12.35;8.30;;;3.50;67.70;;;;;;5029181;28;20040;-65
2022/04/17 06:00:08;;;;;;;11.25;7.47;;;3.60;67.90;;;;;;5031124;28;20099;-65
2022/04/17 06:02:41;;;;;;;10.85;7.80;;;3.70;67.70;;;;;;5035265;28;20098;-65
2022/04/17 06:05:07;;;;;;;10.70;7.28;;;3.70;67.60;;;;;;5042192;28;20040;-65
2022/04/17 06:07:33;;;;;;;12.30;8.02;;;3.80;67.80;;;;;;5047432;28;20044;-67
2022/04/17 06:10:04;;;;;;;11.97;8.20;;;3.90;67.80;;;;;;5033110;28;20181;-67
2022/04/17 06:12:30;;;;;;;13.55;8.48;;;4.00;67.80;;;;;;5021144;28;20374;-66
2022/04/17 06:14:56;;;;;;;10.75;7.80;;;4.10;67.50;;;;;;5030948;28;20047;-66
2022/04/17 06:17:22;;;;;;;11.33;7.53;;;4.20;67.40;;;;;;5019597;28;20044;-66
2022/04/17 06:19:48;;;;;;;12.23;8.10;;;4.30;67.40;;;;;;5009731;28;20123;-67
2022/04/17 06:22:13;;;;;;;10.27;7.40;;;4.40;67.10;;;;;;5037962;28;20449;-66
2022/04/17 06:24:39;;;;;;;11.70;8.30;;;4.50;66.60;;;;;;5027060;28;20050;-66
2022/04/17 06:27:05;;;;;;;12.87;7.80;;;4.60;66.50;;;;;;5045885;28;20040;-66
2022/04/17 06:29:31;;;;;;;12.77;8.57;;;4.70;66.30;;;;;;5023052;28;20068;-66
2022/04/17 06:31:57;;;;;;;13.07;8.55;;;4.90;66.20;;;;;;5047154;28;20068;-66
2022/04/17 06:34:23;;;;;;;10.43;7.63;;;5.00;66.20;;;;;;5028699;28;20078;-66
2022/04/17 06:36:48;;;;;;;13.00;8.93;;;5.10;66.30;;;;;;5028694;28;20037;-66
2022/04/17 06:39:14;;;;;;;13.83;8.43;;;5.20;66.20;;;;;;5048439;28;20098;-66
2022/04/17 06:41:40;;;;;;;12.67;8.07;;;5.30;66.30;;;;;;5015367;28;20068;-66
2022/04/17 06:44:06;;;;;;;10.93;8.03;;;5.50;66.10;;;;;;5013348;28;20044;-66
2022/04/17 06:46:32;;;;;;;12.37;8.30;;;5.70;65.80;;;;;;5040355;28;20041;-66
2022/04/17 06:48:58;;;;;;;11.80;8.02;;;5.80;65.50;;;;;;5044520;28;20087;-66
2022/04/17 06:51:25;;;;;;;10.67;8.23;;;5.90;65.40;;;;;;5040285;28;20040;-67
2022/04/17 06:53:52;;;;;;;11.57;7.95;;;6.10;65.00;;;;;;5011574;28;20037;-67
2022/04/17 06:56:21;;;;;;;11.05;7.82;;;6.20;64.30;;;;;;5030942;28;20052;-67
2022/04/17 06:58:48;;;;;;;11.25;8.18;;;6.30;64.20;;;;;;5032119;28;20041;-67
2022/04/17 07:01:17;;;;;;;11.45;7.85;;;6.40;64.30;;;;;;5051718;28;20036;-67
2022/04/17 07:03:44;;;;;;;10.48;7.43;;;6.50;64.20;;;;;;5027599;28;20083;-67
2022/04/17 07:06:09;;;;;;;11.18;7.72;;;6.70;63.60;;;;;;5023949;28;20094;-67
2022/04/17 07:08:35;;;;;;;11.90;7.50;;;6.80;62.80;;;;;;5034334;28;20052;-67
2022/04/17 07:11:01;;;;;;;10.97;7.53;;;6.80;62.40;;;;;;5048887;28;20431;-67
2022/04/17 07:13:28;;;;;;;10.05;7.68;;;7.00;62.50;;;;;;5026778;28;20483;-67
2022/04/17 07:15:53;;;;;;;11.13;8.23;;;7.10;61.10;;;;;;5047555;28;20044;-67
2022/04/17 07:18:19;;;;;;;11.30;7.47;;;7.10;61.50;;;;;;5033148;28;20044;-67
2022/04/17 07:20:45;;;;;;;11.77;8.05;;;7.20;62.00;;;;;;5047800;28;20121;-67
2022/04/17 07:23:11;;;;;;;12.27;7.87;;;7.40;61.50;;;;;;5041575;28;20049;-67
2022/04/17 07:25:37;;;;;;;11.10;7.73;;;7.50;61.40;;;;;;5031015;28;20032;-67
2022/04/17 07:28:03;;;;;;;11.57;7.93;;;7.60;61.10;;;;;;5030173;28;20051;-67
2022/04/17 07:30:32;;;;;;;12.93;7.95;;;7.70;61.20;;;;;;5013789;28;20758;-67
2022/04/17 07:33:02;;;;;;;14.20;8.23;;;7.80;61.20;;;;;;5039096;28;20396;-67
2022/04/17 07:35:28;;;;;;;12.10;8.23;;;8.00;61.30;;;;;;5042394;28;20041;-67
2022/04/17 07:37:57;;;;;;;10.93;7.60;;;8.10;61.00;;;;;;5041129;28;20569;-67
2022/04/17 07:40:26;;;;;;;12.88;8.82;;;8.30;60.70;;;;;;5025895;28;20041;-67
2022/04/17 07:42:54;;;;;;;9.45;7.07;;;8.40;60.50;;;;;;5046885;28;20131;-67
2022/04/17 07:45:21;;;;;;;10.85;7.18;;;8.60;60.70;;;;;;5027516;28;20780;-67
2022/04/17 07:47:47;;;;;;;10.90;7.72;;;8.70;60.70;;;;;;4999457;28;20079;-67
2022/04/17 07:50:18;;;;;;;10.73;7.68;;;8.90;60.30;;;;;;5046063;28;20040;-67
2022/04/17 07:52:45;;;;;;;10.50;7.50;;;9.00;59.20;;;;;;5048591;28;20362;-67
2022/04/17 07:55:15;;;;;;;9.20;7.18;;;9.20;58.20;;;;;;5030066;28;20090;-67
2022/04/17 08:00:44;;;;;;;11.38;6.82;;;9.40;56.40;;;;;;5047541;28;20484;-67
2022/04/17 08:03:20;;;;;;;11.23;6.65;;;9.50;55.50;;;;;;5039511;28;20048;-67
2022/04/17 08:05:46;;;;;;;9.63;6.30;;;9.60;55.10;;;;;;5047937;28;20037;-67
2022/04/17 08:08:12;;;;;;;9.25;6.30;;;9.80;54.20;;;;;;5026180;28;20112;-67
2022/04/17 08:10:38;;;;;;;10.10;6.63;;;9.90;54.50;;;;;;5014222;28;20870;-67
2022/04/17 08:13:05;;;;;;;10.55;5.80;;;10.00;52.90;;;;;;5029090;28;20052;-67
2022/04/17 08:15:33;;;;;;;10.68;5.68;;;10.10;52.40;;;;;;5029125;28;20618;-67
2022/04/17 08:17:59;;;;;;;7.95;5.88;;;10.20;51.70;;;;;;5040783;28;20047;-66
2022/04/17 08:20:25;;;;;;;11.13;5.47;;;10.30;50.90;;;;;;5045111;28;20048;-67
2022/04/17 08:22:51;;;;;;;10.10;5.90;;;10.40;50.80;;;;;;5025715;28;20040;-68
2022/04/17 08:25:17;;;;;;;8.77;5.70;;;10.50;50.20;;;;;;5012218;28;20091;-68
2022/04/17 08:27:55;;;;;;;8.10;5.63;;;10.60;49.20;;;;;;5039338;28;20041;-67
2022/04/17 08:30:23;;;;;;;8.75;6.15;;;10.70;50.30;;;;;;5041135;28;20113;-67
2022/04/17 08:32:49;;;;;;;8.20;5.55;;;10.90;51.20;;;;;;5044087;28;20413;-67
2022/04/17 08:35:15;;;;;;;8.55;5.97;;;11.00;50.10;;;;;;5041779;28;20052;-68
2022/04/17 08:37:41;;;;;;;10.93;6.33;;;11.10;49.70;;;;;;5039096;28;20044;-68
2022/04/17 08:40:07;;;;;;;8.20;6.03;;;11.30;49.90;;;;;;5026309;28;20103;-67
2022/04/17 08:42:33;;;;;;;9.90;5.95;;;11.30;49.00;;;;;;5030594;28;20513;-67
2022/04/17 08:44:59;;;;;;;7.10;4.82;;;11.40;49.10;;;;;;5048835;28;20086;-67
2022/04/17 08:47:25;;;;;;;8.03;5.20;;;11.50;48.00;;;;;;5025791;28;20048;-67
2022/04/17 08:49:54;;;;;;;6.75;5.38;;;11.60;48.90;;;;;;5016137;28;20033;-68
2022/04/17 08:52:21;;;;;;;7.47;4.80;;;11.70;48.40;;;;;;5007861;28;20466;-68
2022/04/17 08:54:48;;;;;;;7.10;4.43;;;11.80;46.60;;;;;;5040984;28;20039;-68
2022/04/17 08:57:13;;;;;;;7.32;4.63;;;11.90;47.20;;;;;;5020639;28;20048;-67
2022/04/17 08:59:39;;;;;;;7.07;4.30;;;12.00;47.60;;;;;;5008455;28;20036;-67
2022/04/17 09:02:07;;;;;;;6.20;4.53;;;12.10;46.60;;;;;;5027346;28;20163;-67
2022/04/17 09:04:33;;;;;;;6.95;4.63;;;12.20;46.50;;;;;;5021691;28;20123;-67
2022/04/17 09:07:00;;;;;;;7.32;4.97;;;12.30;45.70;;;;;;5022495;28;20048;-67
2022/04/17 09:09:26;;;;;;;7.35;4.68;;;12.40;45.50;;;;;;5035177;28;20037;-67
2022/04/17 09:11:55;;;;;;;6.93;4.20;;;12.50;44.20;;;;;;5025583;28;20044;-67
2022/04/17 09:14:21;;;;;;;9.63;5.13;;;12.50;45.40;;;;;;5023624;28;20493;-67
2022/04/17 09:16:50;;;;;;;6.57;4.43;;;12.60;45.50;;;;;;5029978;28;20040;-67
2022/04/17 09:19:18;;;;;;;6.13;4.60;;;12.80;45.90;;;;;;5042335;28;20041;-67
2022/04/17 09:21:44;;;;;;;7.25;4.80;;;12.90;44.30;;;;;;5022264;28;20090;-67
2022/04/17 09:24:14;;;;;;;7.67;5.00;;;12.90;44.40;;;;;;5029388;28;20439;-68
2022/04/17 09:26:59;;;;;;;7.18;4.80;;;13.00;45.00;;;;;;5024561;28;20310;-67
2022/04/17 09:29:28;;;;;;;7.28;5.10;;;13.10;44.00;;;;;;5046446;28;20040;-67
2022/04/17 09:32:00;;;;;;;7.47;5.50;;;13.20;44.10;;;;;;5030250;28;20028;-67
2022/04/17 09:34:27;;;;;;;8.45;5.50;;;13.20;45.20;;;;;;5029841;28;20488;-67
2022/04/17 09:36:57;;;;;;;6.15;5.30;;;13.30;45.10;;;;;;5016590;28;20041;-67
2022/04/17 09:39:22;;;;;;;7.90;5.18;;;13.40;44.90;;;;;;5019853;28;20444;-67
2022/04/17 09:41:56;;;;;;;7.93;4.73;;;13.50;45.00;;;;;;5053623;28;20048;-67
2022/04/17 09:44:49;;;;;;;7.65;5.57;;;13.60;44.80;;;;;;5030922;28;20049;-68
2022/04/17 09:47:18;;;;;;;10.43;5.90;;;13.80;44.80;;;;;;5038329;28;20413;-68
2022/04/17 09:50:00;;;;;;;8.88;5.18;;;13.90;44.30;;;;;;5029384;28;20277;-68
2022/04/17 09:52:45;;;;;;;6.40;4.80;;;13.90;44.60;;;;;;5044350;28;20045;-68
2022/04/17 09:55:12;;;;;;;7.17;6.07;;;14.00;44.30;;;;;;5040296;28;20348;-68
2022/04/17 09:57:40;;;;;;;9.47;5.87;;;14.10;44.90;;;;;;5044633;28;20298;-68
2022/04/17 10:00:15;;;;;;;6.73;4.63;;;14.20;44.70;;;;;;5048073;28;20371;-68
2022/04/17 10:02:43;;;;;;;7.90;4.60;;;14.30;44.00;;;;;;5042815;28;20295;-68
2022/04/17 10:05:11;;;;;;;5.67;5.03;;;14.40;43.80;;;;;;5032029;28;20049;-68
2022/04/17 10:07:42;;;;;;;7.67;4.73;;;14.30;44.20;;;;;;5049719;28;20278;-68
2022/04/17 10:10:09;;;;;;;6.93;4.37;;;14.40;44.10;;;;;;5035188;28;20286;-68
2022/04/17 10:12:35;;;;;;;8.07;4.60;;;14.50;43.50;;;;;;5027433;28;20287;-68
2022/04/17 10:15:07;;;;;;;5.40;4.10;;;14.70;42.70;;;;;;5048264;28;20299;-68
2022/04/17 10:17:34;;;;;;;7.27;4.50;;;14.80;43.20;;;;;;5051211;28;20329;-68
2022/04/17 10:20:11;;;;;;;6.17;4.10;;;14.90;42.40;;;;;;5051632;28;20302;-68
2022/04/17 10:22:38;;;;;;;6.13;4.37;;;15.00;41.30;;;;;;5043876;28;20618;-68
2022/04/17 10:25:06;;;;;;;7.13;4.93;;;15.10;40.80;;;;;;5033274;28;20336;-68
2022/04/17 10:27:43;;;;;;;7.30;4.30;;;15.10;41.70;;;;;;5034042;28;20373;-68
2022/04/17 10:30:29;;;;;;;6.50;5.03;;;15.20;41.10;;;;;;5041816;28;20310;-68
2022/04/17 10:33:08;;;;;;;;;;;15.20;41.20;;;;;;5037947;28;20294;-68
2022/04/17 10:35:45;;;;;;;10.67;4.73;;;15.20;41.70;;;;;;5040968;28;19999;-68
2022/04/17 10:38:28;;;;;;;7.17;4.37;;;15.30;41.10;;;;;;5028014;28;20299;-68
2022/04/17 10:40:59;;;;;;;6.07;3.80;;;15.40;41.30;;;;;;5033800;28;20287;-68
2022/04/17 10:43:51;;;;;;;6.47;3.97;;;15.50;39.90;;;;;;5026134;28;20620;-68
2022/04/17 10:46:18;;;;;;;7.30;3.90;;;15.60;39.50;;;;;;5049672;28;20338;-68
2022/04/17 10:48:49;;;;;;;5.47;4.17;;;15.70;40.40;;;;;;5050563;28;20279;-68
2022/04/17 10:51:27;;;;;;;6.77;3.83;;;15.70;40.40;;;;;;5039026;28;20309;-68
2022/04/17 10:54:05;;;;;;;4.50;3.17;;;15.80;39.70;;;;;;5033560;28;20279;-68
2022/04/17 10:56:39;;;;;;;7.60;3.73;;;15.80;39.20;;;;;;5033600;28;20321;-68
2022/04/17 10:59:15;;;;;;;6.30;4.40;;;15.90;37.50;;;;;;5049320;28;20985;-68
2022/04/17 11:01:44;;;;;;;5.23;3.90;;;15.90;38.00;;;;;;5031628;28;20275;-68
2022/04/17 11:04:27;;;;;;;5.33;4.03;;;16.00;38.30;;;;;;5050745;28;20828;-68
2022/04/17 11:07:05;;;;;;;4.63;3.63;;;16.10;37.80;;;;;;5018298;28;20349;-68
2022/04/17 11:09:42;;;;;;;4.77;3.50;;;16.10;37.70;;;;;;5034038;28;20290;-68
2022/04/17 11:12:11;;;;;;;5.03;3.90;;;16.10;36.80;;;;;;5034520;28;20287;-68
2022/04/17 11:14:40;;;;;;;4.97;3.80;;;16.20;38.30;;;;;;5048429;28;20717;-68
2022/04/17 11:17:08;;;;;;;5.57;3.47;;;16.30;38.90;;;;;;5015840;28;20679;-68
2022/04/17 11:19:39;;;;;;;5.87;3.90;;;16.40;38.60;;;;;;4995934;28;20655;-68
2022/04/17 11:22:07;;;;;;;8.67;4.10;;;16.50;37.30;;;;;;5034693;28;20294;-68
2022/04/17 11:24:54;;;;;;;4.70;3.13;;;16.60;37.50;;;;;;5032206;28;20318;-68
2022/04/17 11:27:49;;;;;;;5.47;3.70;;;16.70;37.20;;;;;;5050461;28;20285;-68
2022/04/17 11:30:18;;;;;;;5.20;4.20;;;16.60;37.70;;;;;;5050877;28;20289;-68
2022/04/17 11:32:46;;;;;;;5.63;4.73;;;16.80;38.50;;;;;;5033363;28;20045;-68
2022/04/17 11:35:15;;;;;;;6.07;4.07;;;16.80;39.00;;;;;;5050477;28;20374;-68
2022/04/17 11:38:00;;;;;;;5.67;3.43;;;16.90;39.10;;;;;;5049278;28;20743;-68
2022/04/17 11:40:28;;;;;;;5.97;4.30;;;17.00;37.60;;;;;;5034976;28;20311;-68
2022/04/17 11:42:55;;;;;;;6.33;4.10;;;17.00;37.30;;;;;;5028377;28;20527;-68
2022/04/17 11:45:26;;;;;;;6.50;4.17;;;16.90;37.10;;;;;;5044467;28;20711;-68
2022/04/17 11:47:54;;;;;;;8.67;4.20;;;17.00;37.50;;;;;;5049439;28;20313;-68
2022/04/17 11:50:27;;;;;;;5.60;3.17;;;17.10;37.30;;;;;;5029445;28;20280;-68
2022/04/17 11:53:05;;;;;;;4.77;3.50;;;17.20;37.10;;;;;;5029737;28;20319;-68
2022/04/17 11:55:33;;;;;;;4.57;3.67;;;17.30;37.10;;;;;;5045906;28;20382;-68
2022/04/17 11:58:00;;;;;;;5.33;4.10;;;17.40;36.70;;;;;;5046593;28;20287;-68
2022/04/17 12:00:27;;;;;;;5.37;4.37;;;17.50;35.80;;;;;;5047887;28;20313;-68
2022/04/17 12:02:56;;;;;;;5.63;3.70;;;17.50;35.80;;;;;;5049806;28;20340;-68
2022/04/17 12:05:22;;;;;;;5.60;4.13;;;17.60;37.00;;;;;;5050377;28;20822;-68
2022/04/17 12:08:13;;;;;;;6.23;4.50;;;17.60;36.80;;;;;;5033072;28;20326;-68
2022/04/17 12:10:41;;;;;;;6.77;4.37;;;17.70;36.80;;;;;;5033351;28;20083;-68
2022/04/17 12:13:15;;;;;;;7.03;4.97;;;17.70;37.60;;;;;;5046759;28;20287;-68
2022/04/17 12:15:41;;;;;;;5.83;3.97;;;17.70;36.50;;;;;;5002212;28;20299;-68
2022/04/17 12:18:07;;;;;;;6.23;3.90;;;17.70;36.20;;;;;;5031240;28;20349;-68
2022/04/17 12:20:33;;;;;;;5.43;3.80;;;17.80;37.40;;;;;;5046796;28;20916;-68
2022/04/17 12:22:59;;;;;;;5.20;4.53;;;17.80;36.40;;;;;;5026460;28;20040;-68
2022/04/17 12:25:25;;;;;;;5.27;4.10;;;17.70;36.10;;;;;;5048570;28;20298;-68
2022/04/17 12:27:53;;;;;;;6.13;4.67;;;17.70;36.00;;;;;;5030275;28;20038;-68
2022/04/17 12:30:21;;;;;;;5.37;4.60;;;17.70;36.20;;;;;;5048046;28;20314;-68
2022/04/17 12:32:47;;;;;;;6.07;4.57;;;17.90;36.70;;;;;;5031855;28;20297;-68
2022/04/17 12:35:22;;;;;;;7.57;4.10;;;17.90;36.40;;;;;;5031075;28;20792;-68
2022/04/17 12:37:48;;;;;;;;;;;18.00;36.10;;;;;;5049184;28;20283;-68
2022/04/17 12:40:20;;;;;;;6.03;4.60;;;18.10;35.90;;;;;;4997793;28;20612;-68
2022/04/17 12:42:46;;;;;;;6.23;4.43;;;18.10;35.90;;;;;;5043619;28;20833;-68
2022/04/17 12:45:26;;;;;;;5.67;4.63;;;18.10;35.10;;;;;;5022552;28;20300;-70
2022/04/17 12:48:07;;;;;;;4.67;3.90;;;18.10;36.40;;;;;;5038311;28;20128;-70
2022/04/17 12:50:33;;;;;;;5.53;4.57;;;18.10;36.10;;;;;;5030119;28;20287;-70
2022/04/17 12:53:00;;;;;;;5.33;4.23;;;18.20;35.00;;;;;;5046057;28;20283;-70
2022/04/17 12:55:34;;;;;;;6.73;3.50;;;18.30;35.00;;;;;;5028902;28;20309;-70
2022/04/17 12:58:03;;;;;;;4.55;2.95;;;18.30;34.80;;;;;;5043475;28;20290;-70
2022/04/17 13:00:31;;;;;;;4.47;3.17;;;18.30;34.00;;;;;;5040122;28;20144;-70
2022/04/17 13:03:18;;;;;;;4.77;2.93;;;18.40;33.20;;;;;;5040770;28;20291;-72
2022/04/17 13:06:00;;;;;;;3.93;3.20;;;18.20;33.30;;;;;;5030230;28;20294;-71
2022/04/17 13:08:26;;;;;;;5.00;3.20;;;18.30;33.50;;;;;;5041035;28;20299;-71
2022/04/17 13:10:52;;;;;;;4.10;2.53;;;18.40;34.10;;;;;;5027975;28;20279;-71